createdAt,value
2022-11-05T00:00:30.966Z,100453.72
2022-11-05T00:03:15.857Z,100461.75
2022-11-05T00:06:04.018Z,100457.25
2022-11-05T00:09:02.932Z,100454.22
2022-11-05T00:12:01.435Z,100452.91
2022-11-05T00:14:46.307Z,100454.75
2022-11-05T00:17:12.784Z,100452.28
2022-11-05T00:19:39.206Z,100470.84
2022-11-05T00:22:24.220Z,100463.59
2022-11-05T00:25:09.018Z,100469.97
2022-11-05T00:27:35.517Z,100471.19
2022-11-05T00:30:01.982Z,100472.53
2022-11-05T00:32:28.448Z,100484.72
2022-11-05T00:34:55.015Z,100473.69
2022-11-05T00:37:21.533Z,100480.72
2022-11-05T00:39:47.941Z,100488.75
2022-11-05T00:42:32.882Z,100486.91
2022-11-05T00:45:02.150Z,100485.16
2022-11-05T00:47:48.673Z,100484.84
2022-11-05T00:50:15.956Z,100490.06
2022-11-05T00:52:58.779Z,100487.53
2022-11-05T00:55:33.359Z,100493.34
2022-11-05T00:58:00.981Z,100493.69
2022-11-05T01:00:30.229Z,100497.88
2022-11-05T01:03:05.597Z,100509.34
2022-11-05T01:05:34.056Z,100511.00
2022-11-05T01:08:01.379Z,100508.34
2022-11-05T01:10:28.031Z,100512.56
2022-11-05T01:12:54.857Z,100523.81
2022-11-05T01:15:21.580Z,100518.84
2022-11-05T01:17:48.240Z,100522.81
2022-11-05T01:20:14.837Z,100523.97
2022-11-05T01:22:41.261Z,100515.31
2022-11-05T01:25:08.806Z,100524.94
2022-11-05T01:27:36.997Z,100519.00
2022-11-05T01:30:05.877Z,100516.84
2022-11-05T01:32:32.599Z,100519.84
2022-11-05T01:34:59.028Z,100520.28
2022-11-05T01:37:25.477Z,100531.13
2022-11-05T01:39:51.967Z,100525.81
2022-11-05T01:42:22.643Z,100533.22
2022-11-05T01:45:00.091Z,100532.28
2022-11-05T01:47:32.705Z,100546.50
2022-11-05T01:50:05.368Z,100545.16
2022-11-05T01:52:34.655Z,100553.53
2022-11-05T01:55:02.864Z,100557.00
2022-11-05T01:57:30.695Z,100555.50
2022-11-05T01:59:59.761Z,100552.81
2022-11-05T02:02:26.812Z,100564.91
2022-11-05T02:05:00.091Z,100559.00
2022-11-05T02:07:28.285Z,100559.19
2022-11-05T02:09:57.287Z,100568.13
2022-11-05T02:12:24.176Z,100562.78
2022-11-05T02:14:50.642Z,100566.44
2022-11-05T02:17:26.866Z,100569.69
2022-11-05T02:20:23.524Z,100568.31
2022-11-05T02:23:02.024Z,100565.88
2022-11-05T02:25:34.556Z,100576.34
2022-11-05T02:28:19.379Z,100572.34
2022-11-05T02:30:53.698Z,100580.03
2022-11-05T02:33:43.597Z,100576.13
2022-11-05T02:36:38.933Z,100582.94
2022-11-05T02:39:17.142Z,100566.59
2022-11-05T02:42:09.766Z,100568.31
2022-11-05T02:44:47.343Z,100570.03
2022-11-05T02:47:19.622Z,100577.06
2022-11-05T02:49:58.214Z,100580.94
2022-11-05T02:52:32.711Z,100581.38
2022-11-05T02:55:11.280Z,100585.03
2022-11-05T02:57:37.883Z,100584.47
2022-11-05T03:00:08.426Z,100594.13
2022-11-05T03:02:35.177Z,100597.47
2022-11-05T03:05:02.958Z,100595.44
2022-11-05T03:07:49.301Z,100599.16
2022-11-05T03:10:31.901Z,100602.72
2022-11-05T03:13:09.820Z,100600.66
2022-11-05T03:16:02.452Z,100608.06
2022-11-05T03:18:42.242Z,100609.91
2022-11-05T03:21:47.277Z,100619.56
2022-11-05T03:24:24.666Z,100624.47
2022-11-05T03:26:54.240Z,100633.94
2022-11-05T03:29:31.791Z,100629.03
2022-11-05T03:32:01.747Z,100634.63
2022-11-05T03:34:33.969Z,100642.03
2022-11-05T03:37:02.527Z,100632.69
2022-11-05T03:39:37.025Z,100637.13
2022-11-05T03:42:06.996Z,100636.91
2022-11-05T03:44:39.378Z,100638.03
2022-11-05T03:47:11.284Z,100643.16
2022-11-05T03:49:49.461Z,100649.44
2022-11-05T03:52:19.719Z,100642.81
2022-11-05T03:54:46.952Z,100651.72
2022-11-05T03:57:17.769Z,100652.28
2022-11-05T03:59:46.868Z,100649.75
2022-11-05T04:02:15.499Z,100653.06
2022-11-05T04:04:42.413Z,100657.16
2022-11-05T04:07:28.937Z,100656.13
2022-11-05T04:10:14.271Z,100666.41
2022-11-05T04:12:59.031Z,100667.84
2022-11-05T04:15:25.560Z,100668.53
2022-11-05T04:17:51.977Z,100668.84
2022-11-05T04:20:36.768Z,100677.88
2022-11-05T04:23:25.664Z,100675.94
2022-11-05T04:25:52.092Z,100672.50
2022-11-05T04:28:19.143Z,100674.22
2022-11-05T04:30:45.558Z,100666.66
2022-11-05T04:33:17.081Z,100679.75
2022-11-05T04:35:48.452Z,100681.97
2022-11-05T04:38:19.486Z,100684.63
2022-11-05T04:40:48.044Z,100683.03
2022-11-05T04:43:18.375Z,100679.84
2022-11-05T04:45:45.739Z,100675.13
2022-11-05T04:48:12.412Z,100680.50
2022-11-05T04:50:39.267Z,100687.88
2022-11-05T04:53:05.848Z,100688.19
2022-11-05T04:55:32.353Z,100689.91
2022-11-05T04:57:58.777Z,100690.56
2022-11-05T05:00:25.300Z,100695.34
2022-11-05T05:02:51.885Z,100698.16
2022-11-05T05:05:18.513Z,100707.16
2022-11-05T05:07:44.939Z,100704.41
2022-11-05T05:10:12.122Z,100714.72
2022-11-05T05:12:38.529Z,100717.88
2022-11-05T05:15:05.593Z,100725.22
2022-11-05T05:17:32.009Z,100722.94
2022-11-05T05:20:16.821Z,100726.41
2022-11-05T05:22:43.357Z,100728.91
2022-11-05T05:25:09.813Z,100736.03
2022-11-05T05:27:36.346Z,100731.41
2022-11-05T05:30:03.410Z,100731.91
2022-11-05T05:32:29.816Z,100730.72
2022-11-05T05:34:56.343Z,100726.19
2022-11-05T05:37:22.826Z,100728.34
2022-11-05T05:39:49.745Z,100730.72
2022-11-05T05:42:16.309Z,100729.38
2022-11-05T05:44:42.705Z,100731.50
2022-11-05T05:47:09.296Z,100728.97
2022-11-05T05:49:35.744Z,100735.13
2022-11-05T05:52:02.263Z,100743.00
2022-11-05T05:54:32.308Z,100748.66
2022-11-05T05:57:00.789Z,100743.56
2022-11-05T05:59:27.261Z,100754.13
2022-11-05T06:01:53.825Z,100755.00
2022-11-05T06:04:20.692Z,100755.22
2022-11-05T06:06:47.143Z,100762.59
2022-11-05T06:09:14.400Z,100772.31
2022-11-05T06:11:41.244Z,100756.44
2022-11-05T06:14:11.203Z,100759.28
2022-11-05T06:16:38.958Z,100759.16
2022-11-05T06:19:06.667Z,100771.44
2022-11-05T06:21:33.371Z,100765.31
2022-11-05T06:24:02.147Z,100769.56
2022-11-05T06:26:29.263Z,100775.56
2022-11-05T06:28:55.916Z,100777.19
2022-11-05T06:31:22.509Z,100791.34
2022-11-05T06:33:49.038Z,100802.41
2022-11-05T06:36:17.937Z,100799.69
2022-11-05T06:38:44.379Z,100796.00
2022-11-05T06:41:11.068Z,100802.91
2022-11-05T06:43:38.014Z,100805.16
2022-11-05T06:46:04.839Z,100813.31
2022-11-05T06:48:31.475Z,100813.16
2022-11-05T06:50:57.894Z,100815.09
2022-11-05T06:53:24.669Z,100818.53
2022-11-05T06:55:51.237Z,100821.00
2022-11-05T06:58:17.811Z,100828.84
2022-11-05T07:00:45.180Z,100834.78
2022-11-05T07:03:13.110Z,100836.53
2022-11-05T07:05:49.191Z,100834.31
2022-11-05T07:08:16.126Z,100848.09
2022-11-05T07:10:42.735Z,100851.25
2022-11-05T07:13:09.344Z,100858.66
2022-11-05T07:15:36.886Z,100860.56
2022-11-05T07:18:03.996Z,100860.13
2022-11-05T07:20:33.827Z,100867.81
2022-11-05T07:23:06.362Z,100867.00
2022-11-05T07:25:33.423Z,100863.44
2022-11-05T07:28:00.451Z,100865.34
2022-11-05T07:30:27.741Z,100860.38
2022-11-05T07:32:54.422Z,100869.19
2022-11-05T07:35:21.131Z,100869.19
2022-11-05T07:37:49.723Z,100877.50
2022-11-05T07:40:18.613Z,100884.34
2022-11-05T07:42:46.897Z,100885.53
2022-11-05T07:45:13.788Z,100891.00
2022-11-05T07:47:47.712Z,100897.25
2022-11-05T07:50:15.973Z,100898.78
2022-11-05T07:52:42.462Z,100903.75
2022-11-05T07:55:09.851Z,100905.16
2022-11-05T07:57:47.260Z,100913.53
2022-11-05T08:00:17.305Z,100910.09
2022-11-05T08:02:44.156Z,100905.97
2022-11-05T08:05:10.711Z,100909.28
2022-11-05T08:07:37.174Z,100913.75
2022-11-05T08:10:04.249Z,100913.94
2022-11-05T08:12:32.154Z,100915.31
2022-11-05T08:14:58.663Z,100912.72
2022-11-05T08:17:25.128Z,100914.31
2022-11-05T08:19:51.567Z,100920.06
2022-11-05T08:22:18.007Z,100927.00
2022-11-05T08:24:44.423Z,100925.22
2022-11-05T08:27:10.839Z,100933.63
2022-11-05T08:29:37.219Z,100919.75
2022-11-05T08:32:03.775Z,100919.13
2022-11-05T08:34:30.162Z,100911.56
2022-11-05T08:36:56.602Z,100923.63
2022-11-05T08:39:23.068Z,100923.63
2022-11-05T08:41:50.100Z,100924.59
2022-11-05T08:44:17.063Z,100932.25
2022-11-05T08:46:43.481Z,100931.72
2022-11-05T08:49:10.029Z,100936.25
2022-11-05T08:51:36.433Z,100931.78
2022-11-05T08:54:02.897Z,100941.91
2022-11-05T08:56:29.351Z,100947.47
2022-11-05T08:58:55.808Z,100950.72
2022-11-05T09:01:22.342Z,100947.59
2022-11-05T09:03:52.037Z,100962.38
2022-11-05T09:06:22.212Z,100964.28
2022-11-05T09:08:48.774Z,100957.09
2022-11-05T09:11:15.330Z,100959.56
2022-11-05T09:13:41.937Z,100963.44
2022-11-05T09:16:26.480Z,100960.38
2022-11-05T09:18:53.068Z,100969.13
2022-11-05T09:21:19.826Z,100974.88
2022-11-05T09:23:46.764Z,100968.25
2022-11-05T09:26:14.199Z,100979.66
2022-11-05T09:28:40.671Z,100979.59
2022-11-05T09:31:09.249Z,100987.00
2022-11-05T09:33:37.427Z,100990.00
2022-11-05T09:36:04.267Z,100988.66
2022-11-05T09:38:32.767Z,100995.06
2022-11-05T09:41:37.221Z,101002.47
2022-11-05T09:44:11.172Z,101006.84
2022-11-05T09:46:51.143Z,101007.56
2022-11-05T09:49:25.555Z,101015.41
2022-11-05T09:51:54.394Z,101013.41
2022-11-05T09:54:24.829Z,101016.28
2022-11-05T09:56:52.785Z,101020.59
2022-11-05T09:59:24.620Z,101023.28
2022-11-05T10:01:58.161Z,101022.88
2022-11-05T10:04:27.283Z,101034.31
2022-11-05T10:07:04.318Z,101037.28
2022-11-05T10:09:45.202Z,101030.69
2022-11-05T10:12:33.670Z,101037.53
2022-11-05T10:15:20.740Z,101039.09
2022-11-05T10:18:02.503Z,101038.63
2022-11-05T10:20:33.489Z,101048.78
2022-11-05T10:23:12.239Z,101041.69
2022-11-05T10:25:43.913Z,101041.84
2022-11-05T10:28:17.179Z,101052.66
2022-11-05T10:30:46.688Z,101051.31
2022-11-05T10:33:19.922Z,101053.59
2022-11-05T10:35:52.348Z,101058.66
2022-11-05T10:38:19.122Z,101065.25
2022-11-05T10:41:02.487Z,101061.66
2022-11-05T10:43:47.743Z,101067.44
2022-11-05T10:46:33.814Z,101071.22
2022-11-05T10:49:14.665Z,101070.78
2022-11-05T10:51:43.768Z,101078.50
2022-11-05T10:54:22.218Z,101071.25
2022-11-05T10:56:49.479Z,101079.94
2022-11-05T10:59:20.631Z,101082.69
2022-11-05T11:01:47.260Z,101076.97
2022-11-05T11:04:20.558Z,101084.25
2022-11-05T11:06:52.652Z,101086.31
2022-11-05T11:09:31.724Z,101094.34
2022-11-05T11:12:07.471Z,101090.81
2022-11-05T11:14:35.092Z,101087.69
2022-11-05T11:17:27.805Z,101092.63
2022-11-05T11:20:16.089Z,101096.28
2022-11-05T11:22:42.693Z,101090.94
2022-11-05T11:25:25.213Z,101095.50
2022-11-05T11:27:53.005Z,101096.97
2022-11-05T11:30:20.389Z,101103.59
2022-11-05T11:32:49.255Z,101096.06
2022-11-05T11:35:22.484Z,101107.28
2022-11-05T11:37:52.026Z,101104.41
2022-11-05T11:40:31.573Z,101098.72
2022-11-05T11:43:03.050Z,101096.44
2022-11-05T11:45:37.756Z,101105.56
2022-11-05T11:48:06.512Z,101100.66
2022-11-05T11:50:49.742Z,101101.00
2022-11-05T11:53:28.902Z,101101.13
2022-11-05T11:55:55.364Z,101101.69
2022-11-05T11:58:37.387Z,101098.38
2022-11-05T12:01:41.703Z,101095.31
2022-11-05T12:04:45.158Z,101099.63
2022-11-05T12:07:49.220Z,101098.84
2022-11-05T12:10:34.354Z,101097.34
2022-11-05T12:13:19.191Z,101091.72
2022-11-05T12:16:13.828Z,101097.13
2022-11-05T12:18:53.326Z,101101.69
2022-11-05T12:21:48.080Z,101102.25
2022-11-05T12:24:18.713Z,101102.69
2022-11-05T12:27:15.306Z,101105.78
2022-11-05T12:29:55.850Z,101103.28
2022-11-05T12:32:22.346Z,101096.66
2022-11-05T12:35:07.175Z,101102.03
2022-11-05T12:37:51.900Z,101102.34
2022-11-05T12:40:59.872Z,101103.75
2022-11-05T12:43:52.955Z,101104.44
2022-11-05T12:46:36.255Z,101108.56
2022-11-05T12:49:10.727Z,101101.13
2022-11-05T12:51:44.605Z,101102.41
2022-11-05T12:54:28.394Z,101106.84
2022-11-05T12:57:01.952Z,101095.63
2022-11-05T12:59:36.196Z,101099.75
2022-11-05T13:02:25.198Z,101101.94
2022-11-05T13:05:39.612Z,101091.53
2022-11-05T13:08:36.854Z,101093.25
2022-11-05T13:11:12.060Z,101090.16
2022-11-05T13:13:43.877Z,101093.59
2022-11-05T13:16:14.349Z,101095.06
2022-11-05T13:19:39.181Z,101089.91
2022-11-05T13:22:20.887Z,101091.53
2022-11-05T13:24:54.965Z,101095.19
2022-11-05T13:27:43.753Z,101103.78
2022-11-05T13:30:17.774Z,101097.34
2022-11-05T13:32:55.264Z,101101.16
2022-11-05T13:35:42.046Z,101097.59
2022-11-05T13:38:36.689Z,101093.81
2022-11-05T13:41:16.864Z,101101.69
2022-11-05T13:43:46.328Z,101108.09
2022-11-05T13:46:37.008Z,101112.66
2022-11-05T13:49:06.722Z,101108.44
2022-11-05T13:52:03.595Z,101115.28
2022-11-05T13:54:39.055Z,101114.50
2022-11-05T13:57:42.445Z,101107.53
2022-11-05T14:00:09.059Z,101113.00
2022-11-05T14:02:41.140Z,101115.75
2022-11-05T14:05:19.805Z,101111.31
2022-11-05T14:07:47.852Z,101114.69
2022-11-05T14:10:38.601Z,101115.50
2022-11-05T14:13:20.239Z,101114.16
2022-11-05T14:16:01.976Z,101108.53
2022-11-05T14:18:34.315Z,101118.59
2022-11-05T14:21:03.197Z,101119.25
2022-11-05T14:23:49.482Z,101120.97
2022-11-05T14:26:20.944Z,101115.84
2022-11-05T14:29:12.122Z,101121.22
2022-11-05T14:34:44.736Z,101124.97
2022-11-05T14:37:11.283Z,101117.44
2022-11-05T14:39:39.016Z,101124.75
2022-11-05T14:42:14.860Z,101121.78
2022-11-05T14:45:00.178Z,101117.88
2022-11-05T14:47:31.427Z,101125.31
2022-11-05T14:50:01.096Z,101130.75
2022-11-05T14:52:28.191Z,101129.72
2022-11-05T14:54:56.813Z,101136.56
2022-11-05T14:57:47.214Z,101138.53
2022-11-05T15:00:29.149Z,101136.78
2022-11-05T15:03:02.808Z,101135.06
2022-11-05T15:05:39.456Z,101137.69
2022-11-05T15:08:36.707Z,101146.03
2022-11-05T15:11:21.372Z,101134.84
2022-11-05T15:14:02.883Z,101137.81
2022-11-05T15:16:47.688Z,101140.34
2022-11-05T15:19:29.132Z,101146.81
2022-11-05T15:21:58.987Z,101142.22
2022-11-05T15:24:30.696Z,101142.00
2022-11-05T15:27:04.417Z,101142.47
2022-11-05T15:29:32.963Z,101140.69
2022-11-05T15:31:59.883Z,101143.94
2022-11-05T15:34:35.807Z,101141.25
2022-11-05T15:37:20.363Z,101147.19
2022-11-05T15:39:48.809Z,101143.06
2022-11-05T15:42:25.411Z,101147.63
2022-11-05T15:44:59.764Z,101151.34
2022-11-05T15:47:27.452Z,101149.94
2022-11-05T15:49:59.812Z,101157.38
2022-11-05T15:52:36.545Z,101153.34
2022-11-05T15:55:14.476Z,101154.53
2022-11-05T15:57:50.233Z,101162.06
2022-11-05T16:00:20.493Z,101158.56
2022-11-05T16:02:54.935Z,101157.53
2022-11-05T16:05:22.141Z,101147.72
2022-11-05T16:07:49.109Z,101149.84
2022-11-05T16:10:29.111Z,101159.44
2022-11-05T16:12:56.084Z,101159.47
2022-11-05T16:15:32.515Z,101157.56
2022-11-05T16:17:59.956Z,101162.38
2022-11-05T16:20:38.487Z,101155.97
2022-11-05T16:23:21.723Z,101155.81
2022-11-05T16:25:48.259Z,101160.47
2022-11-05T16:28:23.926Z,101171.06
2022-11-05T16:30:53.375Z,101159.19
2022-11-05T16:33:20.198Z,101166.56
2022-11-05T16:35:49.066Z,101167.03
2022-11-05T16:38:17.122Z,101168.34
2022-11-05T16:40:43.671Z,101174.44
2022-11-05T16:43:17.335Z,101183.09
2022-11-05T16:45:44.075Z,101175.72
2022-11-05T16:48:12.178Z,101177.16
2022-11-05T16:50:39.078Z,101180.22
2022-11-05T16:53:05.579Z,101176.03
2022-11-05T16:55:33.201Z,101170.75
2022-11-05T16:58:00.367Z,101175.41
2022-11-05T17:00:26.813Z,101183.91
2022-11-05T17:02:53.580Z,101182.94
2022-11-05T17:05:30.439Z,101187.59
2022-11-05T17:07:57.703Z,101195.47
2022-11-05T17:10:25.509Z,101203.16
2022-11-05T17:12:52.282Z,101202.03
2022-11-05T17:15:24.576Z,101205.41
2022-11-05T17:17:52.291Z,101206.22
2022-11-05T17:20:32.527Z,101213.75
2022-11-05T17:23:03.899Z,101211.00
2022-11-05T17:25:30.896Z,101208.13
2022-11-05T17:27:57.855Z,101211.19
2022-11-05T17:30:24.666Z,101213.28
2022-11-05T17:32:51.484Z,101199.63
2022-11-05T17:35:18.007Z,101207.19
2022-11-05T17:37:44.694Z,101209.53
2022-11-05T17:40:17.471Z,101205.38
2022-11-05T17:42:44.364Z,101215.00
2022-11-05T17:45:12.691Z,101215.81
2022-11-05T17:47:40.465Z,101216.44
2022-11-05T17:50:08.633Z,101214.22
2022-11-05T17:52:35.310Z,101220.81
2022-11-05T17:55:03.787Z,101215.66
2022-11-05T17:57:30.218Z,101208.28
2022-11-05T17:59:56.671Z,101220.47
2022-11-05T18:02:23.271Z,101213.91
2022-11-05T18:04:49.772Z,101214.84
2022-11-05T18:07:16.863Z,101215.50
2022-11-05T18:09:43.343Z,101218.25
2022-11-05T18:12:10.197Z,101213.09
2022-11-05T18:14:36.736Z,101210.22
2022-11-05T18:17:03.399Z,101210.53
2022-11-05T18:19:30.014Z,101200.38
2022-11-05T18:21:56.440Z,101205.38
2022-11-05T18:24:23.050Z,101199.28
2022-11-05T18:26:50.387Z,101216.28
2022-11-05T18:29:16.875Z,101220.47
2022-11-05T18:31:43.414Z,101221.47
2022-11-05T18:34:10.351Z,101222.22
2022-11-05T18:36:36.886Z,101228.81
2022-11-05T18:39:04.853Z,101222.53
2022-11-05T18:41:31.968Z,101225.41
2022-11-05T18:44:02.819Z,101218.84
2022-11-05T18:46:56.558Z,101221.91
2022-11-05T18:49:17.980Z,101215.31
2022-11-05T18:51:44.605Z,101216.28
2022-11-05T18:54:11.082Z,101217.91
2022-11-05T18:56:39.423Z,101210.03
2022-11-05T18:59:34.729Z,101208.25
2022-11-05T19:01:53.126Z,101217.41
2022-11-05T19:04:19.714Z,101226.22
2022-11-05T19:06:46.204Z,101214.38
2022-11-05T19:09:13.110Z,101224.59
2022-11-05T19:11:39.922Z,101223.78
2022-11-05T19:14:07.151Z,101227.25
2022-11-05T19:16:34.230Z,101210.72
2022-11-05T19:19:04.878Z,101215.84
2022-11-05T19:21:31.831Z,101219.38
2022-11-05T19:24:01.389Z,101211.13
2022-11-05T19:26:29.139Z,101218.88
2022-11-05T19:28:58.702Z,101216.28
2022-11-05T19:31:25.903Z,101211.47
2022-11-05T19:33:53.658Z,101204.63
2022-11-05T19:36:21.716Z,101212.28
2022-11-05T19:38:49.621Z,101205.91
2022-11-05T19:41:18.272Z,101216.63
2022-11-05T19:43:45.455Z,101217.28
2022-11-05T19:46:15.884Z,101215.56
2022-11-05T19:48:43.650Z,101214.13
2022-11-05T19:51:19.445Z,101214.31
2022-11-05T19:53:46.288Z,101219.38
2022-11-05T19:56:15.837Z,101216.75
2022-11-05T19:58:43.049Z,101224.53
2022-11-05T20:01:10.886Z,101219.34
2022-11-05T20:03:37.788Z,101214.09
2022-11-05T20:06:10.253Z,101223.97
2022-11-05T20:08:53.484Z,101222.31
2022-11-05T20:11:24.478Z,101224.81
2022-11-05T20:13:50.965Z,101233.22
2022-11-05T20:16:38.074Z,101232.97
2022-11-05T20:19:11.032Z,101234.38
2022-11-05T20:21:38.270Z,101233.63
2022-11-05T20:24:05.292Z,101222.81
2022-11-05T20:26:31.846Z,101223.16
2022-11-05T20:28:58.550Z,101226.94
2022-11-05T20:31:25.081Z,101229.13
2022-11-05T20:33:52.030Z,101234.19
2022-11-05T20:36:22.159Z,101241.16
2022-11-05T20:38:50.155Z,101244.63
2022-11-05T20:41:17.425Z,101240.00
2022-11-05T20:43:44.159Z,101243.66
2022-11-05T20:46:14.037Z,101241.72
2022-11-05T20:48:40.801Z,101243.22
2022-11-05T20:51:10.399Z,101245.31
2022-11-05T20:53:37.949Z,101240.13
2022-11-05T20:56:08.445Z,101245.00
2022-11-05T20:58:36.871Z,101240.13
2022-11-05T21:01:05.198Z,101245.44
2022-11-05T21:03:31.931Z,101245.50
2022-11-05T21:05:59.948Z,101243.34
2022-11-05T21:08:27.887Z,101239.63
2022-11-05T21:10:55.347Z,101243.91
2022-11-05T21:13:22.837Z,101240.00
2022-11-05T21:15:54.631Z,101247.63
2022-11-05T21:18:23.762Z,101248.25
2022-11-05T21:20:50.541Z,101252.63
2022-11-05T21:23:17.489Z,101247.19
2022-11-05T21:25:44.551Z,101250.28
2022-11-05T21:28:13.336Z,101253.31
2022-11-05T21:30:44.915Z,101254.13
2022-11-05T21:33:13.077Z,101253.53
2022-11-05T21:35:41.408Z,101254.75
2022-11-05T21:38:07.930Z,101253.13
2022-11-05T21:40:34.465Z,101260.03
2022-11-05T21:43:00.910Z,101256.56
2022-11-05T21:45:27.363Z,101254.09
2022-11-05T21:47:53.779Z,101264.94
2022-11-05T21:50:40.208Z,101254.69
2022-11-05T21:53:27.228Z,101257.78
2022-11-05T21:56:12.019Z,101250.31
2022-11-05T21:58:56.708Z,101258.50
2022-11-05T22:01:23.245Z,101257.44
2022-11-05T22:03:49.851Z,101254.03
2022-11-05T22:06:16.412Z,101252.63
2022-11-05T22:08:42.895Z,101255.50
2022-11-05T22:11:09.396Z,101251.19
2022-11-05T22:13:35.871Z,101257.44
2022-11-05T22:16:02.357Z,101253.28
2022-11-05T22:18:28.827Z,101250.59
2022-11-05T22:20:55.226Z,101249.31
2022-11-05T22:23:21.906Z,101244.22
2022-11-05T22:25:48.577Z,101249.13
2022-11-05T22:28:15.235Z,101244.63
2022-11-05T22:30:41.965Z,101250.63
2022-11-05T22:33:08.408Z,101255.09
2022-11-05T22:35:34.874Z,101255.41
2022-11-05T22:38:01.398Z,101248.69
2022-11-05T22:40:27.965Z,101241.13
2022-11-05T22:42:54.479Z,101240.13
2022-11-05T22:45:20.989Z,101239.81
2022-11-05T22:47:47.411Z,101239.66
2022-11-05T22:50:13.964Z,101242.69
2022-11-05T22:52:40.507Z,101244.00
2022-11-05T22:55:07.447Z,101249.81
2022-11-05T22:57:33.907Z,101243.88
2022-11-05T23:00:00.739Z,101239.41
2022-11-05T23:02:27.273Z,101239.41
2022-11-05T23:04:53.929Z,101236.50
2022-11-05T23:07:38.936Z,101245.16
2022-11-05T23:10:24.530Z,101249.81
2022-11-05T23:12:53.135Z,101233.09
2022-11-05T23:15:38.618Z,101233.91
2022-11-05T23:18:23.596Z,101236.13
2022-11-05T23:21:08.343Z,101237.91
2022-11-05T23:23:53.094Z,101231.28
2022-11-05T23:26:37.948Z,101227.16
2022-11-05T23:29:04.623Z,101227.59
2022-11-05T23:31:49.384Z,101225.50
2022-11-05T23:34:15.826Z,101236.59
2022-11-05T23:37:00.919Z,101238.97
2022-11-05T23:39:27.320Z,101233.88
2022-11-05T23:42:12.050Z,101234.34
2022-11-05T23:44:57.074Z,101225.78
2022-11-05T23:47:41.860Z,101227.56
2022-11-05T23:50:08.731Z,101215.56
2022-11-05T23:52:35.304Z,101216.81
2022-11-05T23:55:01.734Z,101216.78
2022-11-05T23:57:28.181Z,101217.47
2022-11-05T23:59:54.650Z,101217.34
